Time,TemperatureF,DewpointF,PressureIn,WindDirection,WindDirectionDegrees,WindSpeedMPH,WindSpeedGustMPH,Humidity,HourlyPrecipIn,Conditions,Clouds,dailyrainin,SoftwareType,DateUTC
2013-08-26 00:01:00,59.5,57.8,30.37,East,98,0.0,0.0,94,0.00,,---,0.00,VWS V14.01,2013-08-26 04:01:00,
2013-08-26 00:02:00,59.5,57.8,30.37,East,98,0.0,0.0,94,0.00,,---,0.00,VWS V14.01,2013-08-26 04:02:00,
2013-08-26 00:03:00,59.6,57.9,30.37,East,98,0.0,0.0,94,0.00,,---,0.00,VWS V14.01,2013-08-26 04:03:00,
2013-08-26 00:08:00,59.4,57.7,30.37,East,98,0.0,0.0,94,0.00,,---,0.00,VWS V14.01,2013-08-26 04:08:00,
2013-08-26 00:13:00,59.6,58.2,30.37,East,98,0.0,0.0,95,0.00,,---,0.00,VWS V14.01,2013-08-26 04:13:00,
2013-08-26 00:18:00,59.3,57.6,30.37,East,98,0.0,0.0,94,0.00,,---,0.00,VWS V14.01,2013-08-26 04:18:00,
2013-08-26 00:23:00,59.2,57.5,30.37,East,98,0.0,0.0,94,0.00,,---,0.00,VWS V14.01,2013-08-26 04:23:00,
2013-08-26 00:28:00,59.0,57.3,30.37,East,98,0.0,0.0,94,0.00,,---,0.00,VWS V14.01,2013-08-26 04:28:00,
2013-08-26 00:34:00,58.9,57.2,30.37,East,98,0.0,0.0,94,0.00,,---,0.00,VWS V14.01,2013-08-26 04:34:00,
2013-08-26 00:39:00,58.9,57.5,30.37,East,98,0.0,0.0,95,0.00,,---,0.00,VWS V14.01,2013-08-26 04:39:00,
2013-08-26 00:44:00,58.8,57.1,30.37,East,98,0.0,0.0,94,0.00,,---,0.00,VWS V14.01,2013-08-26 04:44:00,
2013-08-26 00:49:00,58.7,57.0,30.37,East,98,0.0,0.0,94,0.00,,---,0.00,VWS V14.01,2013-08-26 04:49:00,
2013-08-26 00:54:00,58.4,56.7,30.37,East,98,0.0,0.0,94,0.00,,---,0.00,VWS V14.01,2013-08-26 04:54:00,
2013-08-26 00:59:00,58.3,56.9,30.37,East,98,0.0,0.0,95,0.00,,---,0.00,VWS V14.01,2013-08-26 04:59:00,
2013-08-26 01:04:00,58.4,57.0,30.36,East,98,0.0,0.0,95,0.00,,---,0.00,VWS V14.01,2013-08-26 05:04:00,
2013-08-26 01:09:00,58.2,56.8,30.37,East,98,0.0,0.0,95,0.00,,---,0.00,VWS V14.01,2013-08-26 05:09:00,
2013-08-26 01:14:00,58.2,56.8,30.37,East,98,0.0,0.0,95,0.00,,---,0.00,VWS V14.01,2013-08-26 05:14:00,
2013-08-26 01:19:00,58.1,56.7,30.37,East,98,0.0,0.0,95,0.00,,---,0.00,VWS V14.01,2013-08-26 05:19:00,
2013-08-26 01:24:00,58.1,56.7,30.37,East,98,0.0,0.0,95,0.00,,---,0.00,VWS V14.01,2013-08-26 05:24:00,
2013-08-26 01:29:00,58.0,56.6,30.36,East,98,0.0,0.0,95,0.00,,---,0.00,VWS V14.01,2013-08-26 05:29:00,
2013-08-26 01:34:00,58.1,56.7,30.36,East,98,0.0,0.0,95,0.00,,---,0.00,VWS V14.01,2013-08-26 05:34:00,
2013-08-26 01:39:00,57.8,56.4,30.36,East,98,0.0,0.0,95,0.00,,---,0.00,VWS V14.01,2013-08-26 05:39:00,
2013-08-26 01:44:00,57.7,56.3,30.36,East,98,0.0,0.0,95,0.00,,---,0.00,VWS V14.01,2013-08-26 05:44:00,
2013-08-26 01:49:00,57.6,56.2,30.36,East,98,0.0,0.0,95,0.00,,---,0.00,VWS V14.01,2013-08-26 05:49:00,
2013-08-26 01:54:00,57.5,56.1,30.36,East,98,0.0,0.0,95,0.00,,---,0.00,VWS V14.01,2013-08-26 05:54:00,
2013-08-26 01:59:00,57.6,56.2,30.36,East,98,0.0,0.0,95,0.00,,---,0.00,VWS V14.01,2013-08-26 05:59:00,
2013-08-26 02:04:00,57.5,56.1,30.36,East,98,0.0,0.0,95,0.00,,---,0.00,VWS V14.01,2013-08-26 06:04:00,
2013-08-26 02:10:00,57.4,56.0,30.36,East,98,0.0,0.0,95,0.00,,---,0.00,VWS V14.01,2013-08-26 06:10:00,
2013-08-26 02:15:00,57.3,55.9,30.36,East,98,0.0,0.0,95,0.00,,---,0.00,VWS V14.01,2013-08-26 06:15:00,
2013-08-26 02:20:00,57.1,55.7,30.36,East,98,0.0,0.0,95,0.00,,---,0.00,VWS V14.01,2013-08-26 06:20:00,
2013-08-26 02:25:00,57.0,55.6,30.36,East,98,0.0,0.0,95,0.00,,---,0.00,VWS V14.01,2013-08-26 06:25:00,
2013-08-26 02:30:00,56.9,55.5,30.36,East,98,0.0,0.0,95,0.00,,---,0.00,VWS V14.01,2013-08-26 06:30:00,
2013-08-26 02:35:00,57.1,55.7,30.36,East,98,0.0,0.0,95,0.00,,---,0.00,VWS V14.01,2013-08-26 06:35:00,
2013-08-26 02:40:00,57.1,55.7,30.36,East,98,0.0,0.0,95,0.00,,---,0.00,VWS V14.01,2013-08-26 06:40:00,
2013-08-26 02:45:00,56.7,55.3,30.35,East,98,0.0,0.0,95,0.00,,---,0.00,VWS V14.01,2013-08-26 06:45:00,
2013-08-26 02:50:00,56.6,55.2,30.35,East,98,0.0,0.0,95,0.00,,---,0.00,VWS V14.01,2013-08-26 06:50:00,
2013-08-26 02:55:00,56.4,55.0,30.35,East,98,0.0,0.0,95,0.00,,---,0.00,VWS V14.01,2013-08-26 06:55:00,
2013-08-26 03:00:00,56.4,55.0,30.35,East,98,0.0,0.0,95,0.00,,---,0.00,VWS V14.01,2013-08-26 07:00:00,
2013-08-26 03:05:00,56.2,54.8,30.35,East,98,0.0,0.0,95,0.00,,---,0.00,VWS V14.01,2013-08-26 07:05:00,
2013-08-26 03:10:00,56.2,54.8,30.35,East,98,0.0,0.0,95,0.00,,---,0.00,VWS V14.01,2013-08-26 07:10:00,
2013-08-26 03:15:00,56.0,54.9,30.35,East,98,0.0,0.0,96,0.00,,---,0.00,VWS V14.01,2013-08-26 07:15:00,
2013-08-26 03:20:00,56.1,55.0,30.35,East,98,0.0,0.0,96,0.00,,---,0.00,VWS V14.01,2013-08-26 07:20:00,
2013-08-26 03:25:00,56.0,54.9,30.35,East,98,0.0,0.0,96,0.00,,---,0.00,VWS V14.01,2013-08-26 07:25:00,
2013-08-26 03:30:00,56.1,55.0,30.35,East,98,0.0,0.0,96,0.00,,---,0.00,VWS V14.01,2013-08-26 07:30:00,
2013-08-26 03:35:00,56.0,54.9,30.35,East,98,0.0,0.0,96,0.00,,---,0.00,VWS V14.01,2013-08-26 07:35:00,
2013-08-26 03:40:00,55.8,54.7,30.34,East,98,0.0,0.0,96,0.00,,---,0.00,VWS V14.01,2013-08-26 07:40:00,
2013-08-26 03:46:00,55.6,54.2,30.34,East,98,0.0,0.0,95,0.00,,---,0.00,VWS V14.01,2013-08-26 07:46:00,
2013-08-26 03:51:00,55.3,53.9,30.35,East,98,0.0,0.0,95,0.00,,---,0.00,VWS V14.01,2013-08-26 07:51:00,
2013-08-26 03:56:00,55.3,54.2,30.34,East,98,0.0,0.0,96,0.00,,---,0.00,VWS V14.01,2013-08-26 07:56:00,
2013-08-26 04:01:00,55.4,54.3,30.34,East,98,0.0,0.0,96,0.00,,---,0.00,VWS V14.01,2013-08-26 08:01:00,
2013-08-26 04:06:00,55.4,54.3,30.34,East,98,0.0,0.0,96,0.00,,---,0.00,VWS V14.01,2013-08-26 08:06:00,
2013-08-26 04:11:00,55.4,54.3,30.34,East,98,0.0,0.0,96,0.00,,---,0.00,VWS V14.01,2013-08-26 08:11:00,
2013-08-26 04:16:00,55.1,54.0,30.34,East,98,0.0,0.0,96,0.00,,---,0.00,VWS V14.01,2013-08-26 08:16:00,
2013-08-26 04:21:00,55.0,53.9,30.34,East,98,0.0,0.0,96,0.00,,---,0.00,VWS V14.01,2013-08-26 08:21:00,
2013-08-26 04:26:00,55.1,54.0,30.34,East,98,0.0,0.0,96,0.00,,---,0.00,VWS V14.01,2013-08-26 08:26:00,
2013-08-26 04:31:00,54.8,53.7,30.34,East,98,0.0,0.0,96,0.00,,---,0.00,VWS V14.01,2013-08-26 08:31:00,
2013-08-26 04:36:00,54.8,53.7,30.34,East,98,0.0,0.0,96,0.00,,---,0.00,VWS V14.01,2013-08-26 08:36:00,
2013-08-26 04:41:00,54.8,53.7,30.34,East,98,0.0,0.0,96,0.00,,---,0.00,VWS V14.01,2013-08-26 08:41:00,
2013-08-26 04:46:00,54.6,53.5,30.34,East,98,0.0,0.0,96,0.00,,---,0.00,VWS V14.01,2013-08-26 08:46:00,
2013-08-26 04:51:00,54.6,53.5,30.34,East,98,0.0,0.0,96,0.00,,---,0.00,VWS V14.01,2013-08-26 08:51:00,
2013-08-26 04:56:00,54.9,53.8,30.33,East,98,0.0,0.0,96,0.00,,---,0.00,VWS V14.01,2013-08-26 08:56:00,
2013-08-26 05:01:00,54.9,53.8,30.33,East,98,0.0,0.0,96,0.00,,---,0.00,VWS V14.01,2013-08-26 09:01:00,
2013-08-26 05:06:00,54.6,53.5,30.33,East,98,0.0,0.0,96,0.00,,---,0.00,VWS V14.01,2013-08-26 09:06:00,
2013-08-26 05:11:00,54.4,53.3,30.33,East,98,0.0,0.0,96,0.00,,---,0.00,VWS V14.01,2013-08-26 09:11:00,
2013-08-26 05:16:00,54.4,53.3,30.33,East,98,0.0,0.0,96,0.00,,---,0.00,VWS V14.01,2013-08-26 09:16:00,
2013-08-26 05:21:00,54.2,53.1,30.33,East,98,0.0,0.0,96,0.00,,---,0.00,VWS V14.01,2013-08-26 09:21:00,
2013-08-26 05:27:00,54.2,53.1,30.33,East,98,0.0,0.0,96,0.00,,---,0.00,VWS V14.01,2013-08-26 09:27:00,
2013-08-26 05:32:00,54.2,53.1,30.33,East,98,0.0,0.0,96,0.00,,---,0.00,VWS V14.01,2013-08-26 09:32:00,
2013-08-26 05:37:00,54.4,53.3,30.33,East,98,0.0,0.0,96,0.00,,---,0.00,VWS V14.01,2013-08-26 09:37:00,
2013-08-26 05:42:00,54.1,53.0,30.33,East,98,0.0,0.0,96,0.00,,---,0.00,VWS V14.01,2013-08-26 09:42:00,
2013-08-26 05:47:00,53.9,52.8,30.33,East,98,0.0,0.0,96,0.00,,---,0.00,VWS V14.01,2013-08-26 09:47:00,
2013-08-26 05:52:00,54.3,53.2,30.32,East,98,0.0,0.0,96,0.00,,---,0.00,VWS V14.01,2013-08-26 09:52:00,
2013-08-26 05:57:00,54.3,53.2,30.32,East,98,0.0,0.0,96,0.00,,---,0.00,VWS V14.01,2013-08-26 09:57:00,
2013-08-26 06:02:00,53.9,52.8,30.32,East,98,0.0,0.0,96,0.00,,---,0.00,VWS V14.01,2013-08-26 10:02:00,
2013-08-26 06:07:00,53.8,52.7,30.32,East,98,0.0,0.0,96,0.00,,---,0.00,VWS V14.01,2013-08-26 10:07:00,
2013-08-26 06:12:00,53.8,52.7,30.32,East,98,0.0,0.0,96,0.00,,---,0.00,VWS V14.01,2013-08-26 10:12:00,
2013-08-26 06:17:00,53.9,52.8,30.32,East,98,0.0,0.0,96,0.00,,---,0.00,VWS V14.01,2013-08-26 10:17:00,
2013-08-26 06:22:00,53.7,52.6,30.32,East,98,0.0,0.0,96,0.00,,---,0.00,VWS V14.01,2013-08-26 10:22:00,
2013-08-26 06:27:00,53.9,52.8,30.32,East,98,0.0,0.0,96,0.00,,---,0.00,VWS V14.01,2013-08-26 10:27:00,
2013-08-26 06:33:00,53.6,52.5,30.32,East,98,0.0,0.0,96,0.00,,---,0.00,VWS V14.01,2013-08-26 10:33:00,
2013-08-26 06:38:00,53.5,52.4,30.33,East,98,0.0,0.0,96,0.00,,---,0.00,VWS V14.01,2013-08-26 10:38:00,
2013-08-26 06:43:00,53.6,52.5,30.33,East,98,0.0,0.0,96,0.00,,---,0.00,VWS V14.01,2013-08-26 10:43:00,
2013-08-26 06:48:00,53.4,52.3,30.33,East,98,0.0,0.0,96,0.00,,---,0.00,VWS V14.01,2013-08-26 10:48:00,
2013-08-26 06:53:00,53.3,52.2,30.33,East,98,0.0,0.0,96,0.00,,---,0.00,VWS V14.01,2013-08-26 10:53:00,
2013-08-26 06:58:00,53.7,52.6,30.33,East,98,0.0,0.0,96,0.00,,---,0.00,VWS V14.01,2013-08-26 10:58:00,
2013-08-26 07:03:00,53.6,52.5,30.33,East,98,0.0,0.0,96,0.00,,---,0.00,VWS V14.01,2013-08-26 11:03:00,
2013-08-26 07:08:00,53.7,52.6,30.33,East,98,0.0,0.0,96,0.00,,---,0.00,VWS V14.01,2013-08-26 11:08:00,
2013-08-26 07:13:00,53.7,52.6,30.33,East,98,0.0,0.0,96,0.00,,---,0.00,VWS V14.01,2013-08-26 11:13:00,
2013-08-26 07:18:00,53.8,52.7,30.34,East,98,0.0,0.0,96,0.00,,---,0.00,VWS V14.01,2013-08-26 11:18:00,
2013-08-26 07:23:00,54.2,53.1,30.33,East,98,0.0,0.0,96,0.00,,---,0.00,VWS V14.01,2013-08-26 11:23:00,
2013-08-26 07:28:00,54.7,53.6,30.34,East,98,0.0,0.0,96,0.00,,---,0.00,VWS V14.01,2013-08-26 11:28:00,
2013-08-26 07:33:00,55.0,54.2,30.34,East,98,0.0,0.0,97,0.00,,---,0.00,VWS V14.01,2013-08-26 11:33:00,
2013-08-26 07:38:00,55.2,54.1,30.34,East,98,0.0,0.0,96,0.00,,---,0.00,VWS V14.01,2013-08-26 11:38:00,
2013-08-26 07:43:00,55.8,55.0,30.34,East,98,0.0,0.0,97,0.00,,---,0.00,VWS V14.01,2013-08-26 11:43:00,
2013-08-26 07:48:00,56.5,55.7,30.34,East,98,0.0,0.0,97,0.00,,---,0.00,VWS V14.01,2013-08-26 11:48:00,
2013-08-26 07:53:00,57.0,56.2,30.34,East,98,0.0,0.0,97,0.00,,---,0.00,VWS V14.01,2013-08-26 11:53:00,
2013-08-26 07:59:00,57.8,57.0,30.34,East,98,0.0,0.0,97,0.00,,---,0.00,VWS V14.01,2013-08-26 11:59:00,
2013-08-26 08:04:00,58.5,57.7,30.34,East,98,0.0,0.0,97,0.00,,---,0.00,VWS V14.01,2013-08-26 12:04:00,
2013-08-26 08:09:00,59.1,58.2,30.34,East,98,0.0,0.0,97,0.00,,---,0.00,VWS V14.01,2013-08-26 12:09:00,
2013-08-26 08:14:00,60.5,59.7,30.35,East,98,0.0,0.0,97,0.00,,---,0.00,VWS V14.01,2013-08-26 12:14:00,
2013-08-26 08:19:00,60.8,59.7,30.34,East,98,0.0,0.0,96,0.00,,---,0.00,VWS V14.01,2013-08-26 12:19:00,
2013-08-26 08:24:00,61.4,60.0,30.34,East,98,0.0,0.0,95,0.00,,---,0.00,VWS V14.01,2013-08-26 12:24:00,
2013-08-26 08:29:00,62.5,60.5,30.35,East,98,0.0,0.0,93,0.00,,---,0.00,VWS V14.01,2013-08-26 12:29:00,
2013-08-26 08:34:00,62.7,60.0,30.35,East,98,0.0,0.0,91,0.00,,---,0.00,VWS V14.01,2013-08-26 12:34:00,
2013-08-26 08:39:00,63.3,60.6,30.35,East,98,0.0,0.0,91,0.00,,---,0.00,VWS V14.01,2013-08-26 12:39:00,
2013-08-26 08:44:00,63.8,61.1,30.35,East,98,0.0,0.0,91,0.00,,---,0.00,VWS V14.01,2013-08-26 12:44:00,
2013-08-26 08:49:00,64.8,61.8,30.35,East,98,0.0,0.0,90,0.00,,---,0.00,VWS V14.01,2013-08-26 12:49:00,
2013-08-26 08:54:00,65.5,62.2,30.35,East,80,0.0,0.0,89,0.00,,---,0.00,VWS V14.01,2013-08-26 12:54:00,
2013-08-26 08:59:00,65.7,61.4,30.35,ENE,74,0.0,0.0,86,0.00,,---,0.00,VWS V14.01,2013-08-26 12:59:00,
2013-08-26 09:05:00,66.1,61.5,30.35,ENE,74,0.0,0.0,85,0.00,,---,0.00,VWS V14.01,2013-08-26 13:05:00,
2013-08-26 09:10:00,67.0,62.3,30.36,ENE,59,0.0,0.0,85,0.00,,---,0.00,VWS V14.01,2013-08-26 13:10:00,
2013-08-26 09:15:00,66.8,62.2,30.36,ENE,59,0.0,0.0,85,0.00,,---,0.00,VWS V14.01,2013-08-26 13:15:00,
2013-08-26 09:20:00,67.2,62.2,30.35,ENE,59,0.0,0.0,84,0.00,,---,0.00,VWS V14.01,2013-08-26 13:20:00,
2013-08-26 09:25:00,67.9,62.5,30.35,ENE,59,0.0,0.0,83,0.00,,---,0.00,VWS V14.01,2013-08-26 13:25:00,
2013-08-26 09:30:00,68.6,62.9,30.35,ENE,59,0.0,0.0,82,0.00,,---,0.00,VWS V14.01,2013-08-26 13:30:00,
2013-08-26 09:35:00,68.3,62.2,30.35,East,81,0.0,0.0,81,0.00,,---,0.00,VWS V14.01,2013-08-26 13:35:00,
2013-08-26 09:40:00,68.1,61.7,30.35,East,100,0.0,0.0,80,0.00,,---,0.00,VWS V14.01,2013-08-26 13:40:00,
2013-08-26 09:45:00,67.8,61.8,30.36,ESE,111,0.0,0.0,81,0.00,,---,0.00,VWS V14.01,2013-08-26 13:45:00,
2013-08-26 09:50:00,68.6,62.5,30.36,East,86,0.0,0.0,81,0.00,,---,0.00,VWS V14.01,2013-08-26 13:50:00,
2013-08-26 09:55:00,69.1,63.0,30.36,East,86,0.0,0.0,81,0.00,,---,0.00,VWS V14.01,2013-08-26 13:55:00,
2013-08-26 10:00:00,70.0,62.5,30.36,East,84,0.0,0.0,77,0.00,,---,0.00,VWS V14.01,2013-08-26 14:00:00,
2013-08-26 10:05:00,69.9,62.0,30.36,NE,40,0.0,0.0,76,0.00,,---,0.00,VWS V14.01,2013-08-26 14:05:00,
2013-08-26 10:10:00,70.5,63.0,30.36,NE,40,0.0,0.0,77,0.00,,---,0.00,VWS V14.01,2013-08-26 14:10:00,
2013-08-26 10:15:00,70.0,62.1,30.36,SSE,168,0.0,0.0,76,0.00,,---,0.00,VWS V14.01,2013-08-26 14:15:00,
2013-08-26 10:20:00,69.8,60.8,30.36,SSE,150,0.0,0.0,73,0.00,,---,0.00,VWS V14.01,2013-08-26 14:20:00,
2013-08-26 10:25:00,69.9,62.0,30.36,SE,140,0.0,0.0,76,0.00,,---,0.00,VWS V14.01,2013-08-26 14:25:00,
2013-08-26 10:31:00,70.2,62.3,30.36,SE,130,0.0,0.0,76,0.00,,---,0.00,VWS V14.01,2013-08-26 14:31:00,
2013-08-26 10:36:00,70.2,61.9,30.36,SE,144,0.0,0.0,75,0.00,,---,0.00,VWS V14.01,2013-08-26 14:36:00,
2013-08-26 10:41:00,71.6,63.6,30.36,SE,142,0.0,0.0,76,0.00,,---,0.00,VWS V14.01,2013-08-26 14:41:00,
2013-08-26 10:46:00,72.5,63.0,30.36,SE,142,0.0,0.0,72,0.00,,---,0.00,VWS V14.01,2013-08-26 14:46:00,
2013-08-26 10:51:00,72.0,62.5,30.35,SE,137,0.0,0.0,72,0.00,,---,0.00,VWS V14.01,2013-08-26 14:51:00,
2013-08-26 10:56:00,72.1,61.4,30.35,East,91,0.0,0.0,69,0.00,,---,0.00,VWS V14.01,2013-08-26 14:56:00,
2013-08-26 11:01:00,73.1,61.1,30.35,East,91,0.0,0.0,66,0.00,,---,0.00,VWS V14.01,2013-08-26 15:01:00,
2013-08-26 11:06:00,72.3,61.2,30.35,East,97,0.0,0.0,68,0.00,,---,0.00,VWS V14.01,2013-08-26 15:06:00,
2013-08-26 11:11:00,72.9,61.3,30.35,ESE,117,0.0,0.0,67,0.00,,---,0.00,VWS V14.01,2013-08-26 15:11:00,
2013-08-26 11:16:00,73.7,62.9,30.35,NNW,344,0.0,0.0,69,0.00,,---,0.00,VWS V14.01,2013-08-26 15:16:00,
2013-08-26 11:21:00,75.1,63.4,30.35,North,355,0.0,0.0,67,0.00,,---,0.00,VWS V14.01,2013-08-26 15:21:00,
2013-08-26 11:26:00,76.2,63.6,30.35,North,11,0.0,0.0,65,0.00,,---,0.00,VWS V14.01,2013-08-26 15:26:00,
2013-08-26 11:31:00,76.4,62.0,30.35,NE,38,0.0,0.0,61,0.00,,---,0.00,VWS V14.01,2013-08-26 15:31:00,
2013-08-26 11:36:00,74.8,61.4,30.35,ESE,111,0.0,0.0,63,0.00,,---,0.00,VWS V14.01,2013-08-26 15:36:00,
2013-08-26 11:41:00,74.6,60.3,30.35,ESE,109,0.0,0.0,61,0.00,,---,0.00,VWS V14.01,2013-08-26 15:41:00,
2013-08-26 11:46:00,75.4,61.9,30.34,East,99,0.0,0.0,63,0.00,,---,0.00,VWS V14.01,2013-08-26 15:46:00,
2013-08-26 11:51:00,75.3,62.3,30.34,ESE,119,0.0,0.0,64,0.00,,---,0.00,VWS V14.01,2013-08-26 15:51:00,
2013-08-26 11:57:00,76.7,62.2,30.34,WNW,301,0.0,0.0,61,0.00,,---,0.00,VWS V14.01,2013-08-26 15:57:00,
2013-08-26 12:02:00,76.0,61.6,30.34,ESE,118,0.0,0.0,61,0.00,,---,0.00,VWS V14.01,2013-08-26 16:02:00,
2013-08-26 12:07:00,76.4,63.8,30.34,NE,38,0.0,0.0,65,0.00,,---,0.00,VWS V14.01,2013-08-26 16:07:00,
2013-08-26 12:12:00,76.6,63.1,30.33,NNW,331,0.0,0.0,63,0.00,,---,0.00,VWS V14.01,2013-08-26 16:12:00,
2013-08-26 12:17:00,78.3,65.6,30.33,NW,313,0.0,0.0,65,0.00,,---,0.00,VWS V14.01,2013-08-26 16:17:00,
2013-08-26 12:22:00,78.9,64.3,30.33,WNW,301,0.0,0.0,61,0.00,,---,0.00,VWS V14.01,2013-08-26 16:22:00,
2013-08-26 12:27:00,79.1,65.0,30.33,NNE,28,0.0,0.0,62,0.00,,---,0.00,VWS V14.01,2013-08-26 16:27:00,
2013-08-26 12:32:00,79.0,66.2,30.33,NNW,343,0.0,0.0,65,0.00,,---,0.00,VWS V14.01,2013-08-26 16:32:00,
2013-08-26 12:37:00,79.5,65.3,30.32,NNW,348,0.0,0.0,62,0.00,,---,0.00,VWS V14.01,2013-08-26 16:37:00,
2013-08-26 12:42:00,79.6,64.0,30.32,North,351,0.0,0.0,59,0.00,,---,0.00,VWS V14.01,2013-08-26 16:42:00,
2013-08-26 12:47:00,79.8,64.7,30.32,NW,311,0.0,0.0,60,0.00,,---,0.00,VWS V14.01,2013-08-26 16:47:00,
2013-08-26 12:52:00,80.1,65.4,30.32,NNE,24,0.0,0.0,61,0.00,,---,0.00,VWS V14.01,2013-08-26 16:52:00,
2013-08-26 12:57:00,80.3,65.2,30.32,NW,323,0.0,0.0,60,0.00,,---,0.00,VWS V14.01,2013-08-26 16:57:00,
2013-08-26 13:03:00,80.0,65.4,30.32,NNW,345,0.0,0.0,61,0.00,,---,0.00,VWS V14.01,2013-08-26 17:03:00,
2013-08-26 13:08:00,79.8,64.2,30.31,North,360,0.0,0.0,59,0.00,,---,0.00,VWS V14.01,2013-08-26 17:08:00,
2013-08-26 13:13:00,78.7,66.0,30.31,NW,305,0.0,0.0,65,0.00,,---,0.00,VWS V14.01,2013-08-26 17:13:00,
2013-08-26 13:18:00,79.4,63.3,30.31,NNE,24,0.0,0.0,58,0.00,,---,0.00,VWS V14.01,2013-08-26 17:18:00,
2013-08-26 13:23:00,78.7,63.2,30.31,South,175,0.0,0.0,59,0.00,,---,0.00,VWS V14.01,2013-08-26 17:23:00,
2013-08-26 13:28:00,79.0,63.5,30.31,SSE,162,0.0,0.0,59,0.00,,---,0.00,VWS V14.01,2013-08-26 17:28:00,
2013-08-26 13:33:00,78.3,62.3,30.31,ESE,116,0.0,0.0,58,0.00,,---,0.00,VWS V14.01,2013-08-26 17:33:00,
2013-08-26 13:38:00,78.2,61.7,30.30,SE,146,0.0,0.0,57,0.00,,---,0.00,VWS V14.01,2013-08-26 17:38:00,
2013-08-26 13:43:00,78.9,62.9,30.30,SE,139,0.0,0.0,58,0.00,,---,0.00,VWS V14.01,2013-08-26 17:43:00,
2013-08-26 13:48:00,78.7,62.2,30.30,SSE,148,0.0,0.0,57,0.00,,---,0.00,VWS V14.01,2013-08-26 17:48:00,
2013-08-26 13:53:00,78.9,64.3,30.30,SE,140,0.0,0.0,61,0.00,,---,0.00,VWS V14.01,2013-08-26 17:53:00,
2013-08-26 13:58:00,79.9,64.8,30.29,SE,145,0.0,0.0,60,0.00,,---,0.00,VWS V14.01,2013-08-26 17:58:00,
2013-08-26 14:03:00,79.9,62.3,30.29,SSE,161,0.0,0.0,55,0.00,,---,0.00,VWS V14.01,2013-08-26 18:03:00,
2013-08-26 14:09:00,79.2,63.2,30.29,SSE,151,0.0,0.0,58,0.00,,---,0.00,VWS V14.01,2013-08-26 18:09:00,
2013-08-26 14:14:00,79.0,62.5,30.28,SSE,162,0.0,0.0,57,0.00,,---,0.00,VWS V14.01,2013-08-26 18:14:00,
2013-08-26 14:19:00,79.0,62.0,30.28,South,177,0.0,0.0,56,0.00,,---,0.00,VWS V14.01,2013-08-26 18:19:00,
2013-08-26 14:24:00,79.6,62.5,30.28,ESE,121,0.0,0.0,56,0.00,,---,0.00,VWS V14.01,2013-08-26 18:24:00,
2013-08-26 14:29:00,79.4,62.9,30.28,SSE,163,0.0,0.0,57,0.00,,---,0.00,VWS V14.01,2013-08-26 18:29:00,
2013-08-26 14:34:00,79.3,62.3,30.28,ESE,121,0.0,0.0,56,0.00,,---,0.00,VWS V14.01,2013-08-26 18:34:00,
2013-08-26 14:39:00,79.8,62.7,30.27,SSE,154,0.0,0.0,56,0.00,,---,0.00,VWS V14.01,2013-08-26 18:39:00,
2013-08-26 14:44:00,80.2,65.1,30.27,North,350,0.0,0.0,60,0.00,,---,0.00,VWS V14.01,2013-08-26 18:44:00,
2013-08-26 14:50:00,81.4,63.7,30.27,ESE,115,0.0,0.0,55,0.00,,---,0.00,VWS V14.01,2013-08-26 18:50:00,
2013-08-26 14:55:00,80.4,62.8,30.26,SW,235,0.0,0.0,55,0.00,,---,0.00,VWS V14.01,2013-08-26 18:55:00,
2013-08-26 15:00:00,80.0,63.9,30.26,SSE,161,0.0,0.0,58,0.00,,---,0.00,VWS V14.01,2013-08-26 19:00:00,
2013-08-26 15:05:00,80.5,62.3,30.26,ESE,109,0.0,0.0,54,0.00,,---,0.00,VWS V14.01,2013-08-26 19:05:00,
2013-08-26 15:10:00,79.5,63.0,30.26,South,189,0.0,0.0,57,0.00,,---,0.00,VWS V14.01,2013-08-26 19:10:00,
2013-08-26 15:15:00,79.8,64.7,30.25,WSW,250,0.0,0.0,60,0.00,,---,0.00,VWS V14.01,2013-08-26 19:15:00,
2013-08-26 15:20:00,80.0,61.9,30.25,SSW,200,0.0,0.0,54,0.00,,---,0.00,VWS V14.01,2013-08-26 19:20:00,
2013-08-26 15:25:00,80.3,64.2,30.25,SW,222,0.0,0.0,58,0.00,,---,0.00,VWS V14.01,2013-08-26 19:25:00,
2013-08-26 15:30:00,80.7,64.1,30.25,WSW,258,0.0,0.0,57,0.00,,---,0.00,VWS V14.01,2013-08-26 19:30:00,
2013-08-26 15:36:00,80.7,63.6,30.24,West,274,0.0,0.0,56,0.00,,---,0.00,VWS V14.01,2013-08-26 19:36:00,
2013-08-26 15:41:00,80.6,63.5,30.24,SSW,194,0.0,0.0,56,0.00,,---,0.00,VWS V14.01,2013-08-26 19:41:00,
2013-08-26 15:46:00,80.4,63.3,30.24,East,94,0.0,0.0,56,0.00,,---,0.00,VWS V14.01,2013-08-26 19:46:00,
2013-08-26 15:51:00,79.8,62.7,30.24,SE,125,0.0,0.0,56,0.00,,---,0.00,VWS V14.01,2013-08-26 19:51:00,
2013-08-26 15:56:00,79.3,63.3,30.23,ENE,78,0.0,0.0,58,0.00,,---,0.00,VWS V14.01,2013-08-26 19:56:00,
2013-08-26 16:01:00,79.1,63.1,30.23,ESE,122,0.0,0.0,58,0.00,,---,0.00,VWS V14.01,2013-08-26 20:01:00,
2013-08-26 16:06:00,79.2,62.7,30.23,SSE,155,0.0,0.0,57,0.00,,---,0.00,VWS V14.01,2013-08-26 20:06:00,
2013-08-26 16:11:00,80.1,63.5,30.23,SSE,154,0.0,0.0,57,0.00,,---,0.00,VWS V14.01,2013-08-26 20:11:00,
2013-08-26 16:17:00,79.8,61.7,30.23,SE,138,0.0,0.0,54,0.00,,---,0.00,VWS V14.01,2013-08-26 20:17:00,
2013-08-26 16:22:00,79.9,62.8,30.23,South,172,0.0,0.0,56,0.00,,---,0.00,VWS V14.01,2013-08-26 20:22:00,
2013-08-26 16:27:00,79.8,62.7,30.22,SSE,161,0.0,0.0,56,0.00,,---,0.00,VWS V14.01,2013-08-26 20:27:00,
2013-08-26 16:32:00,80.2,64.6,30.22,South,169,0.0,0.0,59,0.00,,---,0.00,VWS V14.01,2013-08-26 20:32:00,
2013-08-26 16:37:00,80.9,64.8,30.22,SSW,202,0.0,0.0,58,0.00,,---,0.00,VWS V14.01,2013-08-26 20:37:00,
2013-08-26 16:42:00,81.2,63.0,30.22,SSW,203,0.0,0.0,54,0.00,,---,0.00,VWS V14.01,2013-08-26 20:42:00,
2013-08-26 16:47:00,81.2,63.5,30.22,SSW,199,0.0,0.0,55,0.00,,---,0.00,VWS V14.01,2013-08-26 20:47:00,
2013-08-26 16:52:00,81.1,63.9,30.21,SSW,204,0.0,0.0,56,0.00,,---,0.00,VWS V14.01,2013-08-26 20:52:00,
2013-08-26 16:57:00,81.0,62.3,30.21,SE,144,0.0,0.0,53,0.00,,---,0.00,VWS V14.01,2013-08-26 20:57:00,
2013-08-26 17:02:00,81.3,63.6,30.22,SSE,158,0.0,0.0,55,0.00,,---,0.00,VWS V14.01,2013-08-26 21:02:00,
2013-08-26 17:07:00,81.1,63.4,30.21,North,350,0.0,0.0,55,0.00,,---,0.00,VWS V14.01,2013-08-26 21:07:00,
2013-08-26 17:13:00,81.0,63.8,30.21,SE,132,0.0,0.0,56,0.00,,---,0.00,VWS V14.01,2013-08-26 21:13:00,
2013-08-26 17:18:00,80.8,63.7,30.21,SE,130,0.0,0.0,56,0.00,,---,0.00,VWS V14.01,2013-08-26 21:18:00,
2013-08-26 17:23:00,80.8,64.2,30.21,SE,130,0.0,0.0,57,0.00,,---,0.00,VWS V14.01,2013-08-26 21:23:00,
2013-08-26 17:28:00,80.9,64.2,30.20,ESE,111,0.0,0.0,57,0.00,,---,0.00,VWS V14.01,2013-08-26 21:28:00,
2013-08-26 17:33:00,80.9,64.2,30.20,NE,40,0.0,0.0,57,0.00,,---,0.00,VWS V14.01,2013-08-26 21:33:00,
2013-08-26 17:38:00,80.8,63.1,30.20,ENE,63,0.0,0.0,55,0.00,,---,0.00,VWS V14.01,2013-08-26 21:38:00,
2013-08-26 17:43:00,80.6,64.5,30.19,ENE,71,0.0,0.0,58,0.00,,---,0.00,VWS V14.01,2013-08-26 21:43:00,
2013-08-26 17:48:00,80.5,64.4,30.19,NNE,15,0.0,0.0,58,0.00,,---,0.00,VWS V14.01,2013-08-26 21:48:00,
2013-08-26 17:53:00,80.5,63.9,30.20,SSE,149,0.0,0.0,57,0.00,,---,0.00,VWS V14.01,2013-08-26 21:53:00,
2013-08-26 17:58:00,80.4,63.3,30.19,SSE,159,0.0,0.0,56,0.00,,---,0.00,VWS V14.01,2013-08-26 21:58:00,
2013-08-26 18:03:00,80.2,63.1,30.19,SSW,212,0.0,0.0,56,0.00,,---,0.00,VWS V14.01,2013-08-26 22:03:00,
2013-08-26 18:08:00,80.1,63.5,30.19,SSE,168,0.0,0.0,57,0.00,,---,0.00,VWS V14.01,2013-08-26 22:08:00,
2013-08-26 18:14:00,79.9,62.8,30.19,South,179,0.0,0.0,56,0.00,,---,0.00,VWS V14.01,2013-08-26 22:14:00,
2013-08-26 18:19:00,79.8,63.2,30.19,SSW,195,0.0,0.0,57,0.00,,---,0.00,VWS V14.01,2013-08-26 22:19:00,
2013-08-26 18:24:00,79.7,62.6,30.19,SSE,168,0.0,0.0,56,0.00,,---,0.00,VWS V14.01,2013-08-26 22:24:00,
2013-08-26 18:29:00,79.6,63.5,30.19,SSE,168,0.0,0.0,58,0.00,,---,0.00,VWS V14.01,2013-08-26 22:29:00,
2013-08-26 18:34:00,79.6,64.0,30.19,SE,126,0.0,0.0,59,0.00,,---,0.00,VWS V14.01,2013-08-26 22:34:00,
2013-08-26 18:39:00,79.4,63.8,30.19,SE,126,0.0,0.0,59,0.00,,---,0.00,VWS V14.01,2013-08-26 22:39:00,
2013-08-26 18:44:00,79.3,63.3,30.19,SE,126,0.0,0.0,58,0.00,,---,0.00,VWS V14.01,2013-08-26 22:44:00,
2013-08-26 18:49:00,79.2,64.1,30.19,SE,126,0.0,0.0,60,0.00,,---,0.00,VWS V14.01,2013-08-26 22:49:00,
2013-08-26 18:54:00,79.0,63.0,30.19,SE,126,0.0,0.0,58,0.00,,---,0.00,VWS V14.01,2013-08-26 22:54:00,
2013-08-26 19:00:00,78.8,63.3,30.19,SSE,154,0.0,0.0,59,0.00,,---,0.00,VWS V14.01,2013-08-26 23:00:00,
2013-08-26 19:05:00,78.7,63.2,30.19,SSW,198,0.0,0.0,59,0.00,,---,0.00,VWS V14.01,2013-08-26 23:05:00,
2013-08-26 19:10:00,78.5,64.0,30.19,SSW,195,0.0,0.0,61,0.00,,---,0.00,VWS V14.01,2013-08-26 23:10:00,
2013-08-26 19:15:00,78.4,63.8,30.19,South,175,0.0,0.0,61,0.00,,---,0.00,VWS V14.01,2013-08-26 23:15:00,
2013-08-26 19:20:00,78.2,63.7,30.18,South,175,0.0,0.0,61,0.00,,---,0.00,VWS V14.01,2013-08-26 23:20:00,
2013-08-26 19:25:00,78.0,63.9,30.18,SSW,211,0.0,0.0,62,0.00,,---,0.00,VWS V14.01,2013-08-26 23:25:00,
2013-08-26 19:30:00,77.8,63.8,30.18,SSW,202,0.0,0.0,62,0.00,,---,0.00,VWS V14.01,2013-08-26 23:30:00,
2013-08-26 19:35:00,77.5,63.5,30.18,South,184,0.0,0.0,62,0.00,,---,0.00,VWS V14.01,2013-08-26 23:35:00,
2013-08-26 19:40:00,77.4,63.8,30.18,South,184,0.0,0.0,63,0.00,,---,0.00,VWS V14.01,2013-08-26 23:40:00,
2013-08-26 19:45:00,77.3,63.7,30.18,South,184,0.0,0.0,63,0.00,,---,0.00,VWS V14.01,2013-08-26 23:45:00,
2013-08-26 19:51:00,77.1,63.5,30.18,South,184,0.0,0.0,63,0.00,,---,0.00,VWS V14.01,2013-08-26 23:51:00,
2013-08-26 19:56:00,76.8,65.0,30.18,South,184,0.0,0.0,67,0.00,,---,0.00,VWS V14.01,2013-08-26 23:56:00,
2013-08-26 20:01:00,76.4,65.1,30.18,South,184,0.0,0.0,68,0.00,,---,0.00,VWS V14.01,2013-08-27 00:01:00,
2013-08-26 20:06:00,76.1,64.8,30.18,South,184,0.0,0.0,68,0.00,,---,0.00,VWS V14.01,2013-08-27 00:06:00,
2013-08-26 20:11:00,75.7,64.4,30.18,South,184,0.0,0.0,68,0.00,,---,0.00,VWS V14.01,2013-08-27 00:11:00,
2013-08-26 20:16:00,75.3,64.4,30.18,South,184,0.0,0.0,69,0.00,,---,0.00,VWS V14.01,2013-08-27 00:16:00,
2013-08-26 20:21:00,74.9,64.5,30.18,South,184,0.0,0.0,70,0.00,,---,0.00,VWS V14.01,2013-08-27 00:21:00,
2013-08-26 20:26:00,74.4,64.4,30.18,South,184,0.0,0.0,71,0.00,,---,0.00,VWS V14.01,2013-08-27 00:26:00,
2013-08-26 20:31:00,73.9,63.9,30.18,South,184,0.0,0.0,71,0.00,,---,0.00,VWS V14.01,2013-08-27 00:31:00,
2013-08-26 20:36:00,73.5,63.9,30.18,South,184,0.0,0.0,72,0.00,,---,0.00,VWS V14.01,2013-08-27 00:36:00,
2013-08-26 20:41:00,73.0,63.8,30.18,South,184,0.0,0.0,73,0.00,,---,0.00,VWS V14.01,2013-08-27 00:41:00,
2013-08-26 20:47:00,72.6,63.8,30.17,South,184,0.0,0.0,74,0.00,,---,0.00,VWS V14.01,2013-08-27 00:47:00,
2013-08-26 20:52:00,72.1,63.8,30.18,South,184,0.0,0.0,75,0.00,,---,0.00,VWS V14.01,2013-08-27 00:52:00,
2013-08-26 20:57:00,71.7,63.7,30.18,South,184,0.0,0.0,76,0.00,,---,0.00,VWS V14.01,2013-08-27 00:57:00,
2013-08-26 21:02:00,71.3,63.3,30.18,South,184,0.0,0.0,76,0.00,,---,0.00,VWS V14.01,2013-08-27 01:02:00,
2013-08-26 21:07:00,71.0,63.4,30.18,South,184,0.0,0.0,77,0.00,,---,0.00,VWS V14.01,2013-08-27 01:07:00,
2013-08-26 21:12:00,70.6,63.4,30.18,South,184,0.0,0.0,78,0.00,,---,0.00,VWS V14.01,2013-08-27 01:12:00,
2013-08-26 21:17:00,70.2,63.0,30.19,South,184,0.0,0.0,78,0.00,,---,0.00,VWS V14.01,2013-08-27 01:17:00,
2013-08-26 21:22:00,69.9,63.1,30.19,South,184,0.0,0.0,79,0.00,,---,0.00,VWS V14.01,2013-08-27 01:22:00,
2013-08-26 21:27:00,69.6,62.8,30.19,South,184,0.0,0.0,79,0.00,,---,0.00,VWS V14.01,2013-08-27 01:27:00,
2013-08-26 21:32:00,69.3,62.9,30.19,South,184,0.0,0.0,80,0.00,,---,0.00,VWS V14.01,2013-08-27 01:32:00,
2013-08-26 21:37:00,69.1,63.0,30.19,South,184,0.0,0.0,81,0.00,,---,0.00,VWS V14.01,2013-08-27 01:37:00,
2013-08-26 21:43:00,68.8,63.1,30.19,South,184,0.0,0.0,82,0.00,,---,0.00,VWS V14.01,2013-08-27 01:43:00,
2013-08-26 21:48:00,68.6,62.9,30.20,South,184,0.0,0.0,82,0.00,,---,0.00,VWS V14.01,2013-08-27 01:48:00,
2013-08-26 21:53:00,68.4,62.7,30.20,South,184,0.0,0.0,82,0.00,,---,0.00,VWS V14.01,2013-08-27 01:53:00,
2013-08-26 21:58:00,68.2,62.8,30.20,South,184,0.0,0.0,83,0.00,,---,0.00,VWS V14.01,2013-08-27 01:58:00,
2013-08-26 22:03:00,68.0,62.7,30.20,South,184,0.0,0.0,83,0.00,,---,0.00,VWS V14.01,2013-08-27 02:03:00,
2013-08-26 22:08:00,67.8,62.5,30.19,South,184,0.0,0.0,83,0.00,,---,0.00,VWS V14.01,2013-08-27 02:08:00,
2013-08-26 22:13:00,67.6,62.3,30.20,South,184,0.0,0.0,83,0.00,,---,0.00,VWS V14.01,2013-08-27 02:13:00,
2013-08-26 22:18:00,67.4,62.1,30.19,South,184,0.0,0.0,83,0.00,,---,0.00,VWS V14.01,2013-08-27 02:18:00,
2013-08-26 22:23:00,67.2,61.9,30.20,South,184,0.0,0.0,83,0.00,,---,0.00,VWS V14.01,2013-08-27 02:23:00,
2013-08-26 22:28:00,67.1,62.1,30.20,South,184,0.0,0.0,84,0.00,,---,0.00,VWS V14.01,2013-08-27 02:28:00,
2013-08-26 22:34:00,66.9,61.9,30.20,South,184,0.0,0.0,84,0.00,,---,0.00,VWS V14.01,2013-08-27 02:34:00,
2013-08-26 22:39:00,66.7,61.7,30.20,South,184,0.0,0.0,84,0.00,,---,0.00,VWS V14.01,2013-08-27 02:39:00,
2013-08-26 22:44:00,66.6,61.6,30.19,South,184,0.0,0.0,84,0.00,,---,0.00,VWS V14.01,2013-08-27 02:44:00,
2013-08-26 22:49:00,66.4,61.4,30.19,South,184,0.0,0.0,84,0.00,,---,0.00,VWS V14.01,2013-08-27 02:49:00,
2013-08-26 22:54:00,66.3,61.3,30.19,South,184,0.0,0.0,84,0.00,,---,0.00,VWS V14.01,2013-08-27 02:54:00,
2013-08-26 22:59:00,66.1,61.5,30.19,South,184,0.0,0.0,85,0.00,,---,0.00,VWS V14.01,2013-08-27 02:59:00,
2013-08-26 23:04:00,66.1,61.8,30.19,South,184,0.0,0.0,86,0.00,,---,0.00,VWS V14.01,2013-08-27 03:04:00,
2013-08-26 23:09:00,66.0,61.7,30.20,South,184,0.0,0.0,86,0.00,,---,0.00,VWS V14.01,2013-08-27 03:09:00,
2013-08-26 23:14:00,65.9,61.9,30.20,South,184,0.0,0.0,87,0.00,,---,0.00,VWS V14.01,2013-08-27 03:14:00,
2013-08-26 23:19:00,65.8,61.8,30.19,South,184,0.0,0.0,87,0.00,,---,0.00,VWS V14.01,2013-08-27 03:19:00,
2013-08-26 23:25:00,65.7,62.0,30.19,South,184,0.0,0.0,88,0.00,,---,0.00,VWS V14.01,2013-08-27 03:25:00,
2013-08-26 23:30:00,65.7,62.0,30.19,South,184,0.0,0.0,88,0.00,,---,0.00,VWS V14.01,2013-08-27 03:30:00,
2013-08-26 23:35:00,65.7,62.0,30.19,South,184,0.0,0.0,88,0.00,,---,0.00,VWS V14.01,2013-08-27 03:35:00,
2013-08-26 23:40:00,65.7,62.0,30.19,South,184,0.0,0.0,88,0.00,,---,0.00,VWS V14.01,2013-08-27 03:40:00,
2013-08-26 23:45:00,65.7,62.0,30.19,South,184,0.0,0.0,88,0.00,,---,0.00,VWS V14.01,2013-08-27 03:45:00,
2013-08-26 23:50:00,65.7,62.0,30.20,South,184,0.0,0.0,88,0.00,,---,0.00,VWS V14.01,2013-08-27 03:50:00,
2013-08-26 23:55:00,65.6,62.0,30.20,South,184,0.0,0.0,88,0.00,,---,0.00,VWS V14.01,2013-08-27 03:55:00,